KEWR

Newark Liberty International Airport

Newark, New Jersey, USA
KEWR 202033Z 2021/2124 31020G30KT P6SM SCT020 SCT030 FM202200 31022G34KT P6SM SCT030 BKN050 FM210000 30020G36KT P6SM SCT050 FM211400 30023G36KT P6SM BKN120
Issued Valid From Valid To
Jan-20 @ 20:33 UTC
(an hour ago)
Jan-20 @ 21:00 UTC
(38 minutes ago)
Jan-22 @ 00:00 UTC
(-1 days ago)
Jan-20 @ 21:00 to Jan-20 @ 22:00
KEWR 202033Z 2021/2124 31020G30KT P6SM SCT020 SCT030
Wind Visibility Clouds
310° at 20 knots
 Gusting to 30 knots
Greater than 6 miles
  • Scattered at 2,000' AGL
  • Scattered at 3,000' AGL
From Jan-20 @ 22:00 to Jan-21 @ 00:00
FM202200 31022G34KT P6SM SCT030 BKN050
Wind Visibility Clouds
310° at 22 knots
 Gusting to 34 knots
Greater than 6 miles
  • Scattered at 3,000' AGL
  • Broken at 5,000' AGL
From Jan-21 @ 00:00 to Jan-21 @ 14:00
FM210000 30020G36KT P6SM SCT050
Wind Visibility Clouds
300° at 20 knots
 Gusting to 36 knots
Greater than 6 miles
  • Scattered at 5,000' AGL
From Jan-21 @ 14:00 to Jan-22 @ 00:00
FM211400 30023G36KT P6SM BKN120
Wind Visibility Clouds
300° at 23 knots
 Gusting to 36 knots
Greater than 6 miles
  • Broken at 12,000' AGL
KEWR 202033Z 2021/2124 31020G30KT P6SM SCT020 SCT030 FM202200 31022G34KT P6SM SCT030 BKN050 FM210000 30020G36KT P6SM SCT050 FM211400 30023G36KT P6SM BKN120
Issued Jan-20 @ 20:33 UTC
(an hour ago)
Valid From Jan-20 @ 21:00 UTC
(38 minutes ago)
Valid To Jan-22 @ 00:00 UTC
(-1 days ago)
Jan-20 @ 21:00 - Jan-20 @ 22:00
Wind Visibility
310° at 20 knots
 Gusting to 30 knots
Greater than 6 miles
Clouds
  • Scattered at 2,000' AGL
  • Scattered at 3,000' AGL
From Jan-20 @ 22:00 - Jan-21 @ 00:00
Wind Visibility
310° at 22 knots
 Gusting to 34 knots
Greater than 6 miles
Clouds
  • Scattered at 3,000' AGL
  • Broken at 5,000' AGL
From Jan-21 @ 00:00 - Jan-21 @ 14:00
Wind Visibility
300° at 20 knots
 Gusting to 36 knots
Greater than 6 miles
Clouds
  • Scattered at 5,000' AGL
From Jan-21 @ 14:00 - Jan-22 @ 00:00
Wind Visibility
300° at 23 knots
 Gusting to 36 knots
Greater than 6 miles
Clouds
  • Broken at 12,000' AGL